Backworth, United Kingdom
Current Conditions -  °F | °C
As of 12:50 PM on Tuesday 21 Oct 2014 (Local Time) from EGNT Reporting Station
Few Clouds Few Clouds  
Wind Chill: 11°   Ceiling: Unl
Heat Index: 11°   Visibility: 6mi
Dew Point:   Wind: 26mph
Humidity: 58%   Direction: 290°WNW
Pressure: 29.38"   Gusts: NA
Location:  55.04°N, 1.53°W
Report Text: EGNT 211150Z 29023KT 9999 FEW034 11/03 Q0995
Loading
Personal Weather Stations






























Interactive Weather Map
Tropical Storm Tracking
New forecast layout! Learn more

10-Day Weather Forecast

Advertisements
Track Severe Weather on mobile